Ternholm — OWIM2 — position and weather

sailwx.info

Track history (hours):
 
Tides and Currents Weather Stations Pressure Air Temp Water Temp Dewpoint Dewpoint Depression Visibility Wind Speed Wind Dir Waves Ship Positions

Ternholm

Last reported at 2014-Aug-23 01:22 UTC. Time now 2014-Aug-23 13:24 UTC.
Position N 59°46' E 024°51'.

Length 141 m; draft 8.8 m.

Type: Ship (hazmat cat C). MMSI: 219076000.

Date/timePositionNaut miles runAvg speedWind from/ knotsBaromVisibWave heightAir tempDewpointWater temp
2014-Aug-23 01:22N 59°46' E 024°51'911.0
2014-Aug-23 00:33N 59°44' E 024°33'1211.2
2014-Aug-22 23:28N 59°41' E 024°10'1211.1
2014-Aug-22 22:22N 59°37' E 023°47'1110.8
2014-Aug-22 21:20N 59°34' E 023°26'31410.9
2014-Aug-21 16:33N 55°55' E 016°22'3611.6
2014-Aug-21 13:27N 55°38' E 015°26'1111.7
2014-Aug-21 12:33N 55°33' E 015°09'1211.7
2014-Aug-21 11:32N 55°28' E 014°51'1111.4
2014-Aug-21 10:33N 55°21' E 014°36'1211.3
2014-Aug-21 09:29N 55°11' E 014°23'1011.0
2014-Aug-21 08:33N 55°03' E 014°11'1211.1
2014-Aug-21 07:27N 54°58' E 013°52'1011.7
2014-Aug-21 06:33N 54°55' E 013°35'1211.4
2014-Aug-21 05:32N 54°51' E 013°15'1211.5
2014-Aug-21 04:31N 54°48' E 012°56'1111.4
2014-Aug-21 03:33N 54°43' E 012°39'1212.3
2014-Aug-21 02:33N 54°36' E 012°21'1212.1
2014-Aug-21 01:33N 54°26' E 012°11'1212.4
2014-Aug-21 00:33N 54°25' E 011°49'168 9.9
2014-Aug-20 07:33N 57°12' E 011°35'1211.9
2014-Aug-20 06:33N 57°23' E 011°27'10 9.9
2014-Aug-20 05:33N 57°32' E 011°35'1010.0
2014-Aug-20 04:33N 57°40' E 011°47'3 3.1
2014-Aug-20 03:31N 57°41' E 011°52'0 0.0
2014-Aug-20 02:31N 57°41' E 011°52'0 0.0
2014-Aug-20 01:31N 57°41' E 011°52'0 0.0
2014-Aug-20 00:31N 57°41' E 011°52'0 0.0
2014-Aug-19 23:31N 57°41' E 011°52'0 0.0
2014-Aug-19 22:31N 57°41' E 011°52'0 0.0
2014-Aug-19 21:31N 57°41' E 011°52'0 0.0
2014-Aug-19 20:31N 57°41' E 011°52'0 0.0
2014-Aug-19 19:31N 57°41' E 011°52'0 0.0
2014-Aug-19 18:31N 57°41' E 011°52'0 0.0
2014-Aug-19 17:31N 57°41' E 011°52'0 0.0
2014-Aug-19 16:31N 57°41' E 011°52'0 0.0
2014-Aug-19 15:31N 57°41' E 011°52'0 0.0
2014-Aug-19 14:25N 57°41' E 011°52'0 0.0
2014-Aug-19 13:31N 57°41' E 011°52'0 0.0
2014-Aug-19 12:31N 57°41' E 011°52'0 0.0
2014-Aug-19 11:31N 57°41' E 011°52'0 0.0
2014-Aug-19 10:31N 57°41' E 011°52'0 0.0
2014-Aug-19 09:31N 57°41' E 011°52'0 0.0
2014-Aug-19 08:31N 57°41' E 011°52'0 0.0
2014-Aug-19 07:31N 57°41' E 011°52'0 0.0
2014-Aug-19 06:31N 57°41' E 011°52'0 0.0
2014-Aug-19 05:31N 57°41' E 011°52'0 0.0
2014-Aug-19 04:31N 57°41' E 011°52'0 0.0
2014-Aug-19 03:31N 57°41' E 011°52'0 0.0
2014-Aug-19 02:31N 57°41' E 011°52'0 0.0
2014-Aug-19 01:31N 57°41' E 011°52'0 0.0
2014-Aug-19 00:31N 57°41' E 011°52'0 0.0
2014-Aug-18 23:31N 57°41' E 011°52'0 0.0
2014-Aug-18 22:31N 57°41' E 011°52'0 0.0
2014-Aug-18 21:34N 57°41' E 011°52'0 0.0
2014-Aug-18 20:33N 57°41' E 011°52'0 0.0
2014-Aug-18 19:33N 57°41' E 011°52'0 0.0
2014-Aug-18 18:33N 57°41' E 011°52'0 0.0
2014-Aug-18 17:33N 57°41' E 011°52'0 0.0
2014-Aug-18 16:33N 57°41' E 011°52'0 0.0
2014-Aug-18 15:33N 57°41' E 011°52'0 0.0
2014-Aug-18 14:33N 57°41' E 011°52'0 0.0
2014-Aug-18 13:33N 57°41' E 011°52'0 0.0
2014-Aug-18 12:33N 57°41' E 011°52'0 0.0
2014-Aug-18 11:33N 57°41' E 011°52'0 0.0
2014-Aug-18 10:33N 57°41' E 011°52'0 0.0
2014-Aug-18 09:33N 57°41' E 011°52'0 0.0
2014-Aug-18 08:33N 57°41' E 011°52'0 0.0
2014-Aug-18 07:33N 57°41' E 011°52'0 0.0
2014-Aug-18 06:33N 57°41' E 011°52'0 0.0
2014-Aug-18 05:33N 57°41' E 011°52'0 0.0
2014-Aug-18 04:33N 57°41' E 011°52'4 4.2
2014-Aug-18 03:33N 57°39' E 011°45'1111.0
2014-Aug-18 02:33N 57°29' E 011°41'1010.2
2014-Aug-18 01:33N 57°19' E 011°49'10 9.6
2014-Aug-18 00:29N 57°09' E 011°54'68 9.4
2014-Aug-17 17:15N 56°06' E 011°09'33 0.8
2014-Aug-16 00:33N 56°18' E 012°03'1211.7
2014-Aug-15 23:33N 56°12' E 012°21'1111.4
2014-Aug-15 22:33N 56°05' E 012°37'1111.2
2014-Aug-15 21:33N 55°54' E 012°45'1111.1
2014-Aug-15 20:33N 55°43' E 012°42'1110.9
2014-Aug-15 19:33N 55°33' E 012°42'1211.5
2014-Aug-15 18:33N 55°21' E 012°40'1010.1
2014-Aug-15 17:33N 55°16' E 012°55'1111.4
2014-Aug-15 16:33N 55°15' E 013°15'4410.9
2014-Aug-15 12:33N 55°23' E 014°31'1511.3
2014-Aug-15 11:15N 55°31' E 014°52'811.5
2014-Aug-15 10:33N 55°35' E 015°04'1211.4
2014-Aug-15 09:32N 55°42' E 015°21'1111.3
2014-Aug-15 08:33N 55°47' E 015°38'1511.3
2014-Aug-15 07:14N 55°55' E 016°00'710.8
2014-Aug-15 06:33N 55°59' E 016°12'1111.5
2014-Aug-15 05:33N 56°05' E 016°29'4611.1
2014-Aug-15 01:23N 56°46' E 017°08'1011.4
2014-Aug-15 00:32N 56°55' E 017°15'1111.5
2014-Aug-14 23:33N 57°05' E 017°22'1111.4
2014-Aug-14 22:34N 57°16' E 017°30'1111.4
2014-Aug-14 21:33N 57°27' E 017°37'1111.4
2014-Aug-14 20:33N 57°38' E 017°44'11 0.3
2014-Aug-13 05:33N 57°26' E 017°46'1111.1
2014-Aug-13 04:34N 57°15' E 017°46'1211.5
2014-Aug-13 03:30N 57°03' E 017°49'  
Track history (hours):
 
Tides and Currents Weather Stations Pressure Air Temp Water Temp Dewpoint Dewpoint Depression Visibility Wind Speed Wind Dir Waves Ship Positions

Ternholm

Last reported at 2014-Aug-23 01:22 UTC. Time now 2014-Aug-23 13:24 UTC.
Position N 59°46' E 024°51'.

Length 141 m; draft 8.8 m.

Type: Ship (hazmat cat C). MMSI: 219076000.

Date/timePositionNaut miles runAvg speedWind from/ knotsBaromVisibWave heightAir tempDewpointWater temp
2014-Aug-23 01:22N 59°46' E 024°51'911.0
2014-Aug-23 00:33N 59°44' E 024°33'1211.2
2014-Aug-22 23:28N 59°41' E 024°10'1211.1
2014-Aug-22 22:22N 59°37' E 023°47'1110.8
2014-Aug-22 21:20N 59°34' E 023°26'31410.9
2014-Aug-21 16:33N 55°55' E 016°22'3611.6
2014-Aug-21 13:27N 55°38' E 015°26'1111.7
2014-Aug-21 12:33N 55°33' E 015°09'1211.7
2014-Aug-21 11:32N 55°28' E 014°51'1111.4
2014-Aug-21 10:33N 55°21' E 014°36'1211.3
2014-Aug-21 09:29N 55°11' E 014°23'1011.0
2014-Aug-21 08:33N 55°03' E 014°11'1211.1
2014-Aug-21 07:27N 54°58' E 013°52'1011.7
2014-Aug-21 06:33N 54°55' E 013°35'1211.4
2014-Aug-21 05:32N 54°51' E 013°15'1211.5
2014-Aug-21 04:31N 54°48' E 012°56'1111.4
2014-Aug-21 03:33N 54°43' E 012°39'1212.3
2014-Aug-21 02:33N 54°36' E 012°21'1212.1
2014-Aug-21 01:33N 54°26' E 012°11'1212.4
2014-Aug-21 00:33N 54°25' E 011°49'168 9.9
2014-Aug-20 07:33N 57°12' E 011°35'1211.9
2014-Aug-20 06:33N 57°23' E 011°27'10 9.9
2014-Aug-20 05:33N 57°32' E 011°35'1010.0
2014-Aug-20 04:33N 57°40' E 011°47'3 3.1
2014-Aug-20 03:31N 57°41' E 011°52'0 0.0
2014-Aug-20 02:31N 57°41' E 011°52'0 0.0
2014-Aug-20 01:31N 57°41' E 011°52'0 0.0
2014-Aug-20 00:31N 57°41' E 011°52'0 0.0
2014-Aug-19 23:31N 57°41' E 011°52'0 0.0
2014-Aug-19 22:31N 57°41' E 011°52'0 0.0
2014-Aug-19 21:31N 57°41' E 011°52'0 0.0
2014-Aug-19 20:31N 57°41' E 011°52'0 0.0
2014-Aug-19 19:31N 57°41' E 011°52'0 0.0
2014-Aug-19 18:31N 57°41' E 011°52'0 0.0
2014-Aug-19 17:31N 57°41' E 011°52'0 0.0
2014-Aug-19 16:31N 57°41' E 011°52'0 0.0
2014-Aug-19 15:31N 57°41' E 011°52'0 0.0
2014-Aug-19 14:25N 57°41' E 011°52'0 0.0
2014-Aug-19 13:31N 57°41' E 011°52'0 0.0
2014-Aug-19 12:31N 57°41' E 011°52'0 0.0
2014-Aug-19 11:31N 57°41' E 011°52'0 0.0
2014-Aug-19 10:31N 57°41' E 011°52'0 0.0
2014-Aug-19 09:31N 57°41' E 011°52'0 0.0
2014-Aug-19 08:31N 57°41' E 011°52'0 0.0
2014-Aug-19 07:31N 57°41' E 011°52'0 0.0
2014-Aug-19 06:31N 57°41' E 011°52'0 0.0
2014-Aug-19 05:31N 57°41' E 011°52'0 0.0
2014-Aug-19 04:31N 57°41' E 011°52'0 0.0
2014-Aug-19 03:31N 57°41' E 011°52'0 0.0
2014-Aug-19 02:31N 57°41' E 011°52'0 0.0
2014-Aug-19 01:31N 57°41' E 011°52'0 0.0
2014-Aug-19 00:31N 57°41' E 011°52'0 0.0
2014-Aug-18 23:31N 57°41' E 011°52'0 0.0
2014-Aug-18 22:31N 57°41' E 011°52'0 0.0
2014-Aug-18 21:34N 57°41' E 011°52'0 0.0
2014-Aug-18 20:33N 57°41' E 011°52'0 0.0
2014-Aug-18 19:33N 57°41' E 011°52'0 0.0
2014-Aug-18 18:33N 57°41' E 011°52'0 0.0
2014-Aug-18 17:33N 57°41' E 011°52'0 0.0
2014-Aug-18 16:33N 57°41' E 011°52'0 0.0
2014-Aug-18 15:33N 57°41' E 011°52'0 0.0
2014-Aug-18 14:33N 57°41' E 011°52'0 0.0
2014-Aug-18 13:33N 57°41' E 011°52'0 0.0
2014-Aug-18 12:33N 57°41' E 011°52'0 0.0
2014-Aug-18 11:33N 57°41' E 011°52'0 0.0
2014-Aug-18 10:33N 57°41' E 011°52'0 0.0
2014-Aug-18 09:33N 57°41' E 011°52'0 0.0
2014-Aug-18 08:33N 57°41' E 011°52'0 0.0
2014-Aug-18 07:33N 57°41' E 011°52'0 0.0
2014-Aug-18 06:33N 57°41' E 011°52'0 0.0
2014-Aug-18 05:33N 57°41' E 011°52'0 0.0
2014-Aug-18 04:33N 57°41' E 011°52'4 4.2
2014-Aug-18 03:33N 57°39' E 011°45'1111.0
2014-Aug-18 02:33N 57°29' E 011°41'1010.2
2014-Aug-18 01:33N 57°19' E 011°49'10 9.6
2014-Aug-18 00:29N 57°09' E 011°54'68 9.4
2014-Aug-17 17:15N 56°06' E 011°09'33 0.8
2014-Aug-16 00:33N 56°18' E 012°03'1211.7
2014-Aug-15 23:33N 56°12' E 012°21'1111.4
2014-Aug-15 22:33N 56°05' E 012°37'1111.2
2014-Aug-15 21:33N 55°54' E 012°45'1111.1
2014-Aug-15 20:33N 55°43' E 012°42'1110.9
2014-Aug-15 19:33N 55°33' E 012°42'1211.5
2014-Aug-15 18:33N 55°21' E 012°40'1010.1
2014-Aug-15 17:33N 55°16' E 012°55'1111.4
2014-Aug-15 16:33N 55°15' E 013°15'4410.9
2014-Aug-15 12:33N 55°23' E 014°31'1511.3
2014-Aug-15 11:15N 55°31' E 014°52'811.5
2014-Aug-15 10:33N 55°35' E 015°04'1211.4
2014-Aug-15 09:32N 55°42' E 015°21'1111.3
2014-Aug-15 08:33N 55°47' E 015°38'1511.3
2014-Aug-15 07:14N 55°55' E 016°00'710.8
2014-Aug-15 06:33N 55°59' E 016°12'1111.5
2014-Aug-15 05:33N 56°05' E 016°29'4611.1
2014-Aug-15 01:23N 56°46' E 017°08'1011.4
2014-Aug-15 00:32N 56°55' E 017°15'1111.5
2014-Aug-14 23:33N 57°05' E 017°22'1111.4
2014-Aug-14 22:34N 57°16' E 017°30'1111.4
2014-Aug-14 21:33N 57°27' E 017°37'1111.4
2014-Aug-14 20:33N 57°38' E 017°44'11 0.3
2014-Aug-13 05:33N 57°26' E 017°46'1111.1
2014-Aug-13 04:34N 57°15' E 017°46'1211.5
2014-Aug-13 03:30N 57°03' E 017°49'  

Dump ship's entire track history